createdAt,value
2018-02-15T00:01:29.650Z,0.80
2018-02-15T00:03:58.030Z,0.80
2018-02-15T00:06:26.310Z,0.80
2018-02-15T00:08:54.691Z,0.80
2018-02-15T00:11:23.150Z,0.80
2018-02-15T00:13:51.590Z,0.80
2018-02-15T00:16:19.730Z,0.80
2018-02-15T00:18:47.790Z,0.80
2018-02-15T00:21:16.070Z,0.80
2018-02-15T00:23:44.090Z,0.80
2018-02-15T00:26:12.391Z,0.70
2018-02-15T00:28:40.551Z,0.70
2018-02-15T00:31:08.770Z,0.80
2018-02-15T00:33:36.930Z,0.80
2018-02-15T00:36:05.130Z,0.90
2018-02-15T00:38:34.011Z,1.00
2018-02-15T00:41:02.991Z,0.90
2018-02-15T00:43:30.951Z,0.90
2018-02-15T00:45:59.133Z,1.00
2018-02-15T00:48:27.311Z,1.00
2018-02-15T00:50:56.190Z,1.00
2018-02-15T00:53:24.470Z,1.00
2018-02-15T00:55:52.650Z,1.00
2018-02-15T00:58:20.911Z,1.10
2018-02-15T01:00:49.431Z,1.10
2018-02-15T01:03:18.710Z,1.00
2018-02-15T01:05:48.031Z,1.10
2018-02-15T01:08:17.410Z,1.00
2018-02-15T01:10:46.710Z,1.00
2018-02-15T01:13:15.790Z,1.00
2018-02-15T01:15:43.870Z,1.00
2018-02-15T01:18:12.011Z,1.00
2018-02-15T01:20:40.410Z,1.10
2018-02-15T01:23:08.790Z,1.10
2018-02-15T01:25:37.073Z,1.10
2018-02-15T01:28:05.250Z,1.20
2018-02-15T01:30:34.230Z,1.20
2018-02-15T01:33:02.510Z,1.20
2018-02-15T01:35:30.990Z,1.10
2018-02-15T01:37:59.050Z,1.20
2018-02-15T01:40:27.230Z,1.20
2018-02-15T01:42:55.410Z,1.20
2018-02-15T01:45:23.570Z,1.10
2018-02-15T01:47:51.750Z,1.20
2018-02-15T01:50:19.710Z,1.10
2018-02-15T01:52:47.793Z,1.00
2018-02-15T01:55:15.871Z,1.00
2018-02-15T01:57:44.950Z,1.00
2018-02-15T02:00:13.030Z,1.00
2018-02-15T02:02:41.491Z,1.00
2018-02-15T02:05:09.670Z,1.00
2018-02-15T02:07:37.950Z,1.00
2018-02-15T02:10:06.231Z,1.00
2018-02-15T02:12:34.491Z,1.00
2018-02-15T02:15:02.673Z,1.00
2018-02-15T02:17:31.170Z,1.00
2018-02-15T02:20:00.150Z,1.00
2018-02-15T02:22:28.210Z,0.90
2018-02-15T02:24:56.410Z,1.00
2018-02-15T02:27:25.490Z,0.90
2018-02-15T02:29:53.690Z,0.90
2018-02-15T02:32:22.090Z,0.80
2018-02-15T02:34:50.310Z,0.70
2018-02-15T02:37:18.491Z,0.80
2018-02-15T02:39:46.878Z,0.80
2018-02-15T02:42:15.831Z,0.80
2018-02-15T02:44:44.430Z,0.80
2018-02-15T02:47:12.831Z,0.80
2018-02-15T02:49:42.111Z,0.70
2018-02-15T02:52:10.490Z,0.70
2018-02-15T02:54:38.672Z,0.70
2018-02-15T02:57:07.971Z,0.80
2018-02-15T02:59:37.031Z,0.80
2018-02-15T03:02:05.252Z,0.80
2018-02-15T03:04:34.290Z,0.80
2018-02-15T03:07:02.470Z,0.70
2018-02-15T03:09:30.831Z,0.80
2018-02-15T03:11:59.150Z,0.70
2018-02-15T03:14:27.210Z,0.60
2018-02-15T03:16:55.490Z,0.50
2018-02-15T03:19:23.656Z,0.50
2018-02-15T03:21:52.051Z,0.40
2018-02-15T03:24:20.230Z,0.40
2018-02-15T03:26:49.410Z,0.50
2018-02-15T03:29:17.690Z,0.50
2018-02-15T03:31:45.874Z,0.50
2018-02-15T03:34:14.031Z,0.60
2018-02-15T03:36:42.110Z,0.70
2018-02-15T03:39:10.270Z,0.70
2018-02-15T03:41:38.450Z,0.70
2018-02-15T03:44:06.790Z,0.70
2018-02-15T03:46:34.991Z,0.70
2018-02-15T03:49:03.291Z,0.70
2018-02-15T03:51:32.360Z,0.80
2018-02-15T03:54:00.550Z,0.70
2018-02-15T03:56:28.990Z,0.90
2018-02-15T03:58:57.411Z,0.90
2018-02-15T04:01:25.750Z,0.90
2018-02-15T04:03:54.270Z,0.80
2018-02-15T04:06:22.358Z,0.80
2018-02-15T04:08:50.630Z,0.90
2018-02-15T04:11:19.410Z,1.10
2018-02-15T04:13:48.590Z,1.10
2018-02-15T04:16:16.971Z,1.00
2018-02-15T04:18:45.370Z,1.20
2018-02-15T04:21:14.455Z,1.40
2018-02-15T04:23:43.730Z,1.50
2018-02-15T04:26:12.230Z,1.50
2018-02-15T04:28:41.411Z,1.60
2018-02-15T04:31:09.590Z,1.60
2018-02-15T04:33:37.870Z,1.60
2018-02-15T04:36:06.130Z,1.70
2018-02-15T04:38:34.510Z,1.80
2018-02-15T04:41:02.890Z,1.90
2018-02-15T04:43:31.130Z,1.90
2018-02-15T04:45:59.230Z,2.00
2018-02-15T04:48:27.511Z,2.00
2018-02-15T04:50:55.691Z,2.00
2018-02-15T04:53:23.674Z,2.10
2018-02-15T04:55:53.050Z,2.00
2018-02-15T04:58:21.330Z,2.00
2018-02-15T05:00:49.711Z,2.00
2018-02-15T05:03:17.990Z,2.10
2018-02-15T05:05:46.270Z,2.20
2018-02-15T05:08:15.370Z,2.30
2018-02-15T05:10:44.430Z,2.30
2018-02-15T05:13:12.770Z,2.30
2018-02-15T05:15:40.990Z,2.30
2018-02-15T05:18:09.172Z,2.30
2018-02-15T05:20:37.790Z,2.30
2018-02-15T05:23:06.230Z,2.40
2018-02-15T05:25:35.410Z,2.50
2018-02-15T05:28:03.790Z,2.50
2018-02-15T05:30:32.210Z,2.40
2018-02-15T05:33:01.410Z,2.40
2018-02-15T05:35:30.594Z,2.40
2018-02-15T05:37:59.770Z,2.30
2018-02-15T05:40:28.250Z,2.30
2018-02-15T05:42:56.390Z,2.30
2018-02-15T05:45:24.710Z,2.40
2018-02-15T05:47:53.210Z,2.30
2018-02-15T05:50:22.165Z,2.30
2018-02-15T05:52:50.453Z,2.30
2018-02-15T05:55:19.330Z,2.40
2018-02-15T05:57:47.570Z,2.30
2018-02-15T06:00:15.631Z,2.40
2018-02-15T06:02:43.750Z,2.50
2018-02-15T06:05:12.031Z,2.50
2018-02-15T06:07:40.111Z,2.60
2018-02-15T06:10:09.890Z,2.60
2018-02-15T06:12:37.892Z,2.50
2018-02-15T06:15:06.130Z,2.50
2018-02-15T06:17:34.231Z,2.50
2018-02-15T06:20:02.371Z,2.50
2018-02-15T06:22:30.675Z,2.40
2018-02-15T06:24:58.850Z,2.40
2018-02-15T06:27:27.017Z,2.40
2018-02-15T06:29:55.610Z,2.50
2018-02-15T06:32:23.651Z,2.40
2018-02-15T06:34:51.950Z,2.30
2018-02-15T06:37:20.130Z,2.30
2018-02-15T06:39:48.310Z,2.40
2018-02-15T06:42:17.410Z,2.50
2018-02-15T06:44:46.791Z,2.60
2018-02-15T06:47:15.353Z,2.60
2018-02-15T06:49:43.971Z,2.60
2018-02-15T06:52:13.270Z,2.60
2018-02-15T06:54:42.350Z,2.60
2018-02-15T06:57:10.451Z,2.60
2018-02-15T06:59:39.511Z,2.60
2018-02-15T07:02:08.013Z,2.60
2018-02-15T07:04:37.190Z,2.70
2018-02-15T07:07:05.510Z,2.70
2018-02-15T07:09:33.850Z,2.70
2018-02-15T07:12:02.031Z,2.80
2018-02-15T07:14:31.130Z,2.80
2018-02-15T07:17:00.610Z,2.90
2018-02-15T07:19:28.890Z,2.90
2018-02-15T07:21:57.090Z,2.90
2018-02-15T07:24:26.353Z,3.00
2018-02-15T07:26:54.750Z,3.00
2018-02-15T07:29:23.010Z,3.10
2018-02-15T07:31:51.171Z,3.10
2018-02-15T07:34:19.390Z,3.00
2018-02-15T07:36:48.370Z,3.00
2018-02-15T07:39:17.330Z,3.00
2018-02-15T07:41:45.431Z,3.00
2018-02-15T07:44:14.430Z,2.90
2018-02-15T07:46:43.310Z,2.80
2018-02-15T07:49:11.470Z,2.80
2018-02-15T07:51:39.750Z,2.80
2018-02-15T07:54:07.830Z,2.80
2018-02-15T07:56:35.992Z,2.80
2018-02-15T07:59:04.270Z,2.70
2018-02-15T08:01:32.650Z,2.80
2018-02-15T08:04:01.157Z,2.80
2018-02-15T08:06:29.551Z,2.90
2018-02-15T08:08:57.767Z,3.00
2018-02-15T08:11:26.170Z,3.00
2018-02-15T08:13:54.979Z,3.00
2018-02-15T08:16:23.540Z,3.00
2018-02-15T08:18:52.547Z,3.00
2018-02-15T08:21:22.420Z,3.10
2018-02-15T08:23:50.723Z,3.00
2018-02-15T08:26:19.899Z,3.30
2018-02-15T08:28:48.239Z,3.20
2018-02-15T08:31:16.560Z,3.30
2018-02-15T08:33:44.599Z,3.30
2018-02-15T08:36:12.943Z,3.30
2018-02-15T08:38:41.380Z,3.50
2018-02-15T08:41:09.539Z,3.50
2018-02-15T08:43:37.700Z,3.60
2018-02-15T08:46:06.216Z,3.70
2018-02-15T08:48:34.597Z,3.80
2018-02-15T08:51:03.735Z,3.80
2018-02-15T08:53:32.135Z,3.80
2018-02-15T08:56:00.438Z,3.90
2018-02-15T08:58:29.036Z,3.80
2018-02-15T09:00:58.147Z,3.90
2018-02-15T09:03:26.290Z,3.90
2018-02-15T09:05:54.351Z,3.90
2018-02-15T09:08:22.798Z,3.90
2018-02-15T09:10:51.011Z,4.00
2018-02-15T09:13:19.191Z,4.10
2018-02-15T09:15:47.564Z,4.10
2018-02-15T09:18:16.665Z,4.00
2018-02-15T09:20:45.794Z,4.00
2018-02-15T09:23:14.450Z,4.00
2018-02-15T09:25:42.615Z,4.10
2018-02-15T09:28:11.505Z,3.90
2018-02-15T09:30:39.785Z,3.90
2018-02-15T09:33:08.864Z,3.90
2018-02-15T09:35:36.927Z,3.90
2018-02-15T09:38:04.989Z,3.90
2018-02-15T09:40:33.048Z,3.80
2018-02-15T09:43:01.209Z,3.70
2018-02-15T09:45:29.288Z,3.60
2018-02-15T09:47:57.488Z,3.60
2018-02-15T09:50:25.767Z,3.70
2018-02-15T09:52:54.209Z,3.70
2018-02-15T09:55:22.248Z,3.60
2018-02-15T09:57:51.208Z,3.60
2018-02-15T10:00:19.514Z,3.60
2018-02-15T10:02:47.968Z,3.60
2018-02-15T10:05:16.029Z,3.30
2018-02-15T10:07:44.107Z,3.20
2018-02-15T10:10:12.467Z,3.10
2018-02-15T10:12:41.308Z,3.00
2018-02-15T10:15:09.667Z,3.00
2018-02-15T10:17:38.968Z,3.10
2018-02-15T10:20:08.073Z,3.10
2018-02-15T10:22:37.232Z,3.20
2018-02-15T10:25:05.511Z,3.20
2018-02-15T10:27:33.892Z,3.30
2018-02-15T10:30:02.273Z,3.30
2018-02-15T10:32:30.356Z,3.30
2018-02-15T10:34:59.431Z,3.30
2018-02-15T10:37:27.672Z,3.30
2018-02-15T10:39:55.773Z,3.40
2018-02-15T10:42:24.127Z,3.40
2018-02-15T10:44:52.328Z,3.40
2018-02-15T10:47:20.971Z,3.40
2018-02-15T10:49:49.200Z,3.50
2018-02-15T10:52:17.348Z,3.50
2018-02-15T10:54:45.599Z,3.40
2018-02-15T10:57:14.142Z,3.50
2018-02-15T10:59:43.219Z,3.70
2018-02-15T11:02:16.979Z,3.60
2018-02-15T11:04:50.600Z,3.70
2018-02-15T11:07:18.799Z,3.60
2018-02-15T11:09:47.067Z,3.60
2018-02-15T11:12:15.247Z,3.60
2018-02-15T11:14:44.227Z,3.50
2018-02-15T11:17:12.507Z,3.50
2018-02-15T11:19:40.667Z,3.60
2018-02-15T11:22:09.108Z,3.50
2018-02-15T11:24:37.686Z,3.60
2018-02-15T11:27:05.947Z,3.60
2018-02-15T11:29:35.226Z,3.70
2018-02-15T11:32:04.387Z,3.70
2018-02-15T11:34:33.007Z,3.70
2018-02-15T11:37:01.267Z,3.80
2018-02-15T11:39:29.847Z,3.80
2018-02-15T11:41:58.346Z,3.90
2018-02-15T11:44:27.506Z,4.00
2018-02-15T11:46:55.930Z,4.00
2018-02-15T11:49:25.067Z,4.10
2018-02-15T11:51:53.306Z,4.10
2018-02-15T11:54:22.467Z,4.20
2018-02-15T11:56:50.606Z,4.20
2018-02-15T11:59:18.667Z,4.20
2018-02-15T12:01:46.886Z,4.20
2018-02-15T12:04:15.067Z,4.20
2018-02-15T12:06:43.346Z,4.20
2018-02-15T12:09:11.507Z,4.30
2018-02-15T12:11:39.686Z,4.30
2018-02-15T12:14:08.068Z,4.30
2018-02-15T12:16:36.448Z,4.30
2018-02-15T12:19:04.626Z,4.40
2018-02-15T12:21:33.728Z,4.50
2018-02-15T12:24:03.007Z,4.40
2018-02-15T12:26:31.188Z,4.40
2018-02-15T12:28:59.342Z,4.30
2018-02-15T12:31:28.828Z,4.40
2018-02-15T12:33:57.167Z,4.40
2018-02-15T12:36:25.627Z,4.40
2018-02-15T12:38:54.626Z,4.50
2018-02-15T12:41:23.726Z,4.50
2018-02-15T12:43:52.987Z,4.40
2018-02-15T12:46:21.447Z,4.40
2018-02-15T12:48:49.967Z,4.40
2018-02-15T12:51:18.346Z,4.50
2018-02-15T12:53:46.731Z,4.50
2018-02-15T12:56:15.686Z,4.40
2018-02-15T12:58:44.292Z,4.40
2018-02-15T13:01:12.454Z,4.50
2018-02-15T13:03:40.937Z,4.50
2018-02-15T13:06:09.222Z,4.50
2018-02-15T13:08:39.241Z,4.60
2018-02-15T13:11:08.542Z,4.70
2018-02-15T13:13:36.881Z,4.60
2018-02-15T13:16:16.861Z,4.80
2018-02-15T13:18:45.462Z,4.80
2018-02-15T13:21:14.421Z,4.90
2018-02-15T13:23:43.023Z,4.90
2018-02-15T13:26:11.504Z,4.90
2018-02-15T13:28:40.082Z,4.90
2018-02-15T13:31:08.442Z,5.00
2018-02-15T13:33:36.942Z,5.20
2018-02-15T13:36:05.462Z,5.30
2018-02-15T13:38:34.121Z,5.40
2018-02-15T13:41:03.322Z,5.30
2018-02-15T13:43:32.361Z,5.20
2018-02-15T13:46:00.765Z,5.20
2018-02-15T13:48:28.962Z,5.20
2018-02-15T13:50:57.842Z,5.10
2018-02-15T13:53:25.962Z,5.10
2018-02-15T13:55:54.281Z,5.10
2018-02-15T13:58:22.383Z,5.10
2018-02-15T14:00:50.542Z,5.00
2018-02-15T14:03:19.482Z,5.30
2018-02-15T14:05:48.023Z,5.20
2018-02-15T14:08:17.202Z,5.60
2018-02-15T14:10:45.262Z,5.60
2018-02-15T14:13:13.575Z,5.60
2018-02-15T14:15:41.941Z,5.70
2018-02-15T14:18:11.269Z,5.70
2018-02-15T14:20:39.705Z,5.70
2018-02-15T14:23:08.182Z,5.60
2018-02-15T14:25:36.762Z,5.60
2018-02-15T14:28:05.042Z,5.50
2018-02-15T14:30:34.142Z,5.40
2018-02-15T14:33:02.483Z,5.40
2018-02-15T14:35:31.002Z,5.30
2018-02-15T14:37:59.981Z,5.20
2018-02-15T14:40:28.243Z,5.20
2018-02-15T14:42:56.604Z,5.20
2018-02-15T14:45:25.122Z,5.20
2018-02-15T14:47:54.141Z,5.20
2018-02-15T14:50:22.502Z,5.20
2018-02-15T14:52:51.581Z,5.30
2018-02-15T14:55:19.745Z,5.30
2018-02-15T14:57:48.101Z,5.30
2018-02-15T15:00:16.414Z,5.30
2018-02-15T15:02:45.613Z,5.30
2018-02-15T15:05:13.974Z,5.20
2018-02-15T15:07:42.271Z,5.30
2018-02-15T15:10:11.341Z,5.30
2018-02-15T15:12:39.544Z,5.30
2018-02-15T15:15:08.613Z,5.30
2018-02-15T15:17:37.634Z,5.40
2018-02-15T15:20:06.912Z,5.40
2018-02-15T15:22:35.481Z,5.40
2018-02-15T15:25:04.701Z,5.60
2018-02-15T15:27:33.681Z,5.60
2018-02-15T15:30:02.581Z,5.60
2018-02-15T15:32:30.741Z,5.60
2018-02-15T15:34:58.925Z,5.60
2018-02-15T15:37:27.293Z,5.60
2018-02-15T15:39:55.564Z,5.60
2018-02-15T15:42:23.964Z,5.60
2018-02-15T15:44:53.164Z,5.60
2018-02-15T15:47:22.544Z,5.60
2018-02-15T15:49:52.464Z,5.70
2018-02-15T15:52:21.764Z,5.70
2018-02-15T15:54:50.204Z,5.60
2018-02-15T15:57:18.268Z,5.60
2018-02-15T15:59:46.477Z,5.60
2018-02-15T16:02:15.638Z,5.70
2018-02-15T16:04:43.994Z,5.60
2018-02-15T16:07:13.254Z,5.70
2018-02-15T16:09:41.638Z,5.70
2018-02-15T16:12:10.398Z,5.70
2018-02-15T16:14:39.614Z,5.80
2018-02-15T16:17:08.513Z,5.80
2018-02-15T16:19:37.477Z,5.80
2018-02-15T16:22:06.351Z,5.90
2018-02-15T16:24:35.093Z,5.90
2018-02-15T16:27:04.473Z,6.00
2018-02-15T16:29:33.155Z,6.00
2018-02-15T16:32:01.535Z,6.10
2018-02-15T16:34:29.959Z,6.10
2018-02-15T16:36:58.054Z,6.10
2018-02-15T16:39:26.253Z,6.20
2018-02-15T16:41:54.634Z,6.20
2018-02-15T16:44:22.834Z,6.20
2018-02-15T16:46:51.954Z,6.30
2018-02-15T16:49:20.194Z,6.30
2018-02-15T16:51:48.454Z,6.20
2018-02-15T16:54:17.074Z,6.30
2018-02-15T16:56:46.280Z,6.40
2018-02-15T16:59:14.834Z,6.40
2018-02-15T17:01:44.055Z,6.40
2018-02-15T17:04:12.395Z,6.40
2018-02-15T17:06:40.573Z,6.50
2018-02-15T17:09:09.557Z,6.50
2018-02-15T17:11:37.804Z,6.50
2018-02-15T17:14:06.314Z,6.50
2018-02-15T17:16:35.514Z,6.50
2018-02-15T17:19:03.686Z,6.40
2018-02-15T17:21:31.743Z,6.50
2018-02-15T17:23:59.807Z,6.50
2018-02-15T17:26:28.102Z,6.50
2018-02-15T17:28:57.102Z,6.60
2018-02-15T17:31:25.151Z,6.60
2018-02-15T17:33:53.342Z,6.60
2018-02-15T17:36:21.729Z,6.60
2018-02-15T17:38:50.951Z,6.50
2018-02-15T17:41:19.289Z,6.60
2018-02-15T17:43:47.549Z,6.60
2018-02-15T17:46:15.949Z,6.60
2018-02-15T17:48:44.230Z,6.60
2018-02-15T17:51:13.529Z,6.60
2018-02-15T17:53:41.893Z,6.60
2018-02-15T17:56:10.391Z,6.50
2018-02-15T17:58:39.709Z,6.40
2018-02-15T18:01:09.630Z,6.30
2018-02-15T18:03:37.972Z,6.30
2018-02-15T18:06:06.350Z,6.10
2018-02-15T18:08:36.271Z,5.90
2018-02-15T18:11:05.609Z,5.90
2018-02-15T18:13:33.869Z,5.80
2018-02-15T18:16:03.054Z,5.80
2018-02-15T18:18:32.130Z,5.80
2018-02-15T18:21:01.110Z,5.80
2018-02-15T18:23:29.350Z,5.80
2018-02-15T18:25:57.670Z,5.70
2018-02-15T18:28:26.050Z,5.70
2018-02-15T18:30:55.349Z,5.60
2018-02-15T18:33:23.870Z,5.60
2018-02-15T18:35:52.230Z,5.50
2018-02-15T18:38:21.669Z,5.60
2018-02-15T18:40:50.090Z,5.60
2018-02-15T18:43:18.613Z,5.60
2018-02-15T18:45:47.110Z,5.60
2018-02-15T18:48:15.530Z,5.50
2018-02-15T18:50:43.789Z,5.50
2018-02-15T18:53:12.012Z,5.50
2018-02-15T18:55:40.349Z,5.50
2018-02-15T18:58:08.830Z,5.60
2018-02-15T19:00:37.190Z,5.70
2018-02-15T19:03:06.229Z,5.70
2018-02-15T19:05:35.311Z,5.70
2018-02-15T19:08:04.292Z,5.80
2018-02-15T19:10:32.670Z,5.80
2018-02-15T19:13:00.951Z,5.70
2018-02-15T19:15:29.170Z,5.70
2018-02-15T19:17:57.591Z,5.60
2018-02-15T19:20:26.790Z,5.60
2018-02-15T19:22:55.072Z,5.60
2018-02-15T19:25:23.370Z,5.60
2018-02-15T19:27:52.429Z,5.60
2018-02-15T19:30:20.509Z,5.60
2018-02-15T19:32:49.013Z,5.70
2018-02-15T19:35:17.870Z,5.70
2018-02-15T19:37:46.129Z,5.70
2018-02-15T19:40:14.429Z,5.60
2018-02-15T19:42:42.929Z,5.60
2018-02-15T19:45:11.949Z,5.60
2018-02-15T19:47:40.270Z,5.60
2018-02-15T19:50:08.611Z,5.50
2018-02-15T19:52:37.049Z,5.50
2018-02-15T19:55:06.030Z,5.40
2018-02-15T19:57:34.389Z,5.40
2018-02-15T20:00:02.890Z,5.40
2018-02-15T20:02:31.309Z,5.40
2018-02-15T20:04:59.849Z,5.40
2018-02-15T20:07:28.331Z,5.40
2018-02-15T20:09:56.609Z,5.40
2018-02-15T20:12:25.590Z,5.40
2018-02-15T20:14:53.970Z,5.40
2018-02-15T20:17:22.230Z,5.40
2018-02-15T20:19:56.210Z,5.50
2018-02-15T20:22:24.331Z,5.60
2018-02-15T20:24:52.709Z,5.60
2018-02-15T20:27:26.470Z,5.70
2018-02-15T20:29:54.690Z,5.70
2018-02-15T20:32:22.770Z,5.80
2018-02-15T20:34:51.750Z,6.00
2018-02-15T20:37:19.911Z,6.00
2018-02-15T20:39:54.030Z,6.00
2018-02-15T20:42:22.209Z,6.10
2018-02-15T20:44:50.289Z,6.10
2018-02-15T20:47:19.271Z,6.20
2018-02-15T20:49:53.250Z,6.20
2018-02-15T20:52:27.013Z,6.20
2018-02-15T20:55:00.911Z,6.20
2018-02-15T20:57:30.510Z,6.40
2018-02-15T20:59:59.670Z,6.30
2018-02-15T21:02:28.409Z,6.30
2018-02-15T21:04:56.649Z,6.40
2018-02-15T21:07:24.909Z,6.40
2018-02-15T21:09:53.190Z,6.50
2018-02-15T21:12:21.770Z,6.50
2018-02-15T21:14:50.131Z,6.50
2018-02-15T21:17:18.650Z,6.50
2018-02-15T21:19:46.911Z,6.50
2018-02-15T21:22:15.611Z,6.50
2018-02-15T21:24:44.590Z,6.50
2018-02-15T21:27:12.630Z,6.50
2018-02-15T21:29:41.010Z,6.50
2018-02-15T21:32:09.192Z,6.50
2018-02-15T21:34:37.509Z,6.50
2018-02-15T21:37:06.790Z,6.60
2018-02-15T21:39:36.830Z,6.60
2018-02-15T21:42:06.010Z,6.50
2018-02-15T21:44:34.149Z,6.50
2018-02-15T21:47:02.349Z,6.50
2018-02-15T21:49:30.630Z,6.50
2018-02-15T21:51:58.889Z,6.50
2018-02-15T21:54:27.070Z,6.50
2018-02-15T21:56:55.350Z,6.40
2018-02-15T21:59:23.690Z,6.50
2018-02-15T22:01:52.152Z,6.60
2018-02-15T22:04:20.690Z,6.60
2018-02-15T22:06:49.166Z,6.60
2018-02-15T22:09:17.345Z,6.70
2018-02-15T22:11:45.465Z,6.70
2018-02-15T22:14:13.685Z,6.80
2018-02-15T22:16:43.625Z,6.80
2018-02-15T22:19:12.605Z,6.90
2018-02-15T22:21:41.686Z,6.90
2018-02-15T22:24:10.167Z,6.90
2018-02-15T22:26:38.346Z,6.80
2018-02-15T22:29:06.406Z,6.80
2018-02-15T22:31:34.786Z,6.80
2018-02-15T22:34:03.466Z,6.80
2018-02-15T22:36:32.145Z,6.80
2018-02-15T22:39:00.328Z,6.90
2018-02-15T22:41:28.828Z,6.90
2018-02-15T22:43:58.026Z,6.90
2018-02-15T22:46:27.446Z,6.90
2018-02-15T22:48:55.706Z,6.90
2018-02-15T22:51:24.966Z,6.90
2018-02-15T22:53:53.565Z,6.90
2018-02-15T22:56:22.745Z,6.90
2018-02-15T22:58:51.046Z,6.90
2018-02-15T23:01:20.225Z,6.90
2018-02-15T23:03:48.426Z,6.90
2018-02-15T23:06:18.106Z,6.90
2018-02-15T23:08:46.606Z,6.90
2018-02-15T23:11:14.845Z,6.90
2018-02-15T23:13:43.068Z,6.90
2018-02-15T23:16:12.245Z,7.00
2018-02-15T23:18:40.588Z,7.00
2018-02-15T23:21:09.725Z,7.10
2018-02-15T23:23:37.985Z,7.00
2018-02-15T23:26:06.165Z,7.10
2018-02-15T23:28:34.325Z,7.10
2018-02-15T23:31:02.725Z,7.10
2018-02-15T23:33:31.826Z,7.20
2018-02-15T23:36:00.806Z,7.20
2018-02-15T23:38:29.187Z,7.20
2018-02-15T23:40:58.285Z,7.20
2018-02-15T23:43:27.265Z,7.20
2018-02-15T23:45:55.449Z,7.20
2018-02-15T23:48:24.425Z,7.10
2018-02-15T23:50:52.745Z,7.10
2018-02-15T23:53:21.306Z,7.10
2018-02-15T23:55:50.605Z,7.20
2018-02-15T23:58:19.925Z,7.20
